createdAt,value
2022-11-11T00:01:26.181Z,73.60
2022-11-11T00:03:58.239Z,73.50
2022-11-11T00:06:25.360Z,73.60
2022-11-11T00:08:52.340Z,73.60
2022-11-11T00:11:19.486Z,73.70
2022-11-11T00:13:46.539Z,73.70
2022-11-11T00:16:17.371Z,73.80
2022-11-11T00:19:04.120Z,73.90
2022-11-11T00:21:50.519Z,73.80
2022-11-11T00:24:49.321Z,73.80
2022-11-11T00:27:17.414Z,74.00
2022-11-11T00:29:48.149Z,73.90
2022-11-11T00:32:24.533Z,74.00
2022-11-11T00:35:12.650Z,74.10
2022-11-11T00:37:41.663Z,74.20
2022-11-11T00:40:10.951Z,74.30
2022-11-11T00:42:38.632Z,74.40
2022-11-11T00:45:07.356Z,74.60
2022-11-11T00:47:53.225Z,74.60
2022-11-11T00:50:47.841Z,74.60
2022-11-11T00:53:24.825Z,74.60
2022-11-11T00:55:54.375Z,74.60
2022-11-11T00:58:23.354Z,74.70
2022-11-11T01:00:53.844Z,74.70
2022-11-11T01:03:22.553Z,74.70
2022-11-11T01:05:50.010Z,74.70
2022-11-11T01:08:17.300Z,74.70
2022-11-11T01:10:44.972Z,74.80
2022-11-11T01:13:18.627Z,74.70
2022-11-11T01:15:51.199Z,74.70
2022-11-11T01:18:24.769Z,74.70
2022-11-11T01:21:05.189Z,74.60
2022-11-11T01:23:35.598Z,74.60
2022-11-11T01:26:14.464Z,74.50
2022-11-11T01:28:41.966Z,74.50
2022-11-11T01:31:14.800Z,74.40
2022-11-11T01:33:42.441Z,74.50
2022-11-11T01:36:19.839Z,74.40
2022-11-11T01:38:51.873Z,74.40
2022-11-11T01:41:32.848Z,74.40
2022-11-11T01:44:48.577Z,74.40
2022-11-11T01:47:18.698Z,74.60
2022-11-11T01:50:01.201Z,74.20
2022-11-11T01:52:32.549Z,74.20
2022-11-11T01:55:16.192Z,74.20
2022-11-11T01:57:57.337Z,74.10
2022-11-11T02:00:24.816Z,74.00
2022-11-11T02:03:07.763Z,73.90
2022-11-11T02:08:34.295Z,74.00
2022-11-11T02:11:16.690Z,74.10
2022-11-11T02:14:03.518Z,74.20
2022-11-11T02:16:30.839Z,74.20
2022-11-11T02:18:58.170Z,74.20
2022-11-11T02:21:45.953Z,74.30
2022-11-11T02:24:18.247Z,74.50
2022-11-11T02:26:46.079Z,74.40
2022-11-11T02:29:18.175Z,74.50
2022-11-11T02:31:45.304Z,74.60
2022-11-11T02:34:12.549Z,74.50
2022-11-11T02:36:42.048Z,74.60
2022-11-11T02:39:09.374Z,74.60
2022-11-11T02:41:54.926Z,74.70
2022-11-11T02:44:22.338Z,74.70
2022-11-11T02:46:49.713Z,74.70
2022-11-11T02:49:16.769Z,74.70
2022-11-11T02:51:44.147Z,74.80
2022-11-11T02:54:11.303Z,74.80
2022-11-11T02:56:57.386Z,74.80
2022-11-11T02:59:24.668Z,74.80
2022-11-11T03:01:51.994Z,74.80
2022-11-11T03:04:19.721Z,74.90
2022-11-11T03:06:46.927Z,74.90
2022-11-11T03:09:14.634Z,75.00
2022-11-11T03:11:42.096Z,75.10
2022-11-11T03:14:09.460Z,75.20
2022-11-11T03:16:55.652Z,75.20
2022-11-11T03:19:22.954Z,75.20
2022-11-11T03:24:56.130Z,75.40
2022-11-11T03:27:23.491Z,75.40
2022-11-11T03:29:50.554Z,75.50
2022-11-11T03:32:17.716Z,75.50
2022-11-11T03:34:44.811Z,75.60
2022-11-11T03:37:31.041Z,75.60
2022-11-11T03:39:58.404Z,75.70
2022-11-11T03:42:25.569Z,75.70
2022-11-11T03:44:52.739Z,75.70
2022-11-11T03:47:21.131Z,75.70
2022-11-11T03:49:48.266Z,75.80
2022-11-11T03:52:15.552Z,75.80
2022-11-11T03:54:42.718Z,75.90
2022-11-11T03:57:28.364Z,75.80
2022-11-11T03:59:55.514Z,75.80
2022-11-11T04:02:41.115Z,75.70
2022-11-11T04:05:26.934Z,75.70
2022-11-11T04:08:12.718Z,75.60
2022-11-11T04:10:39.916Z,75.60
2022-11-11T04:13:26.430Z,75.70
2022-11-11T04:16:08.646Z,75.80
2022-11-11T04:18:55.738Z,75.80
2022-11-11T04:21:43.616Z,75.80
2022-11-11T04:24:35.239Z,75.70
2022-11-11T04:27:09.294Z,75.60
2022-11-11T04:29:37.411Z,75.60
2022-11-11T04:32:26.668Z,75.60
2022-11-11T04:34:56.829Z,75.60
2022-11-11T04:37:26.025Z,75.70
2022-11-11T04:40:12.496Z,75.80
2022-11-11T04:42:40.166Z,75.90
2022-11-11T04:45:28.628Z,75.90
2022-11-11T04:48:10.102Z,75.90
2022-11-11T04:50:39.645Z,76.10
2022-11-11T04:53:10.984Z,75.90
2022-11-11T04:55:57.887Z,75.90
2022-11-11T04:58:33.851Z,75.80
2022-11-11T05:01:01.732Z,75.70
2022-11-11T05:03:28.926Z,75.70
2022-11-11T05:06:17.547Z,75.80
2022-11-11T05:08:57.129Z,75.70
2022-11-11T05:11:34.064Z,75.70
2022-11-11T05:14:22.595Z,75.60
2022-11-11T05:17:15.428Z,75.50
2022-11-11T05:20:01.635Z,75.50
2022-11-11T05:22:33.733Z,75.50
2022-11-11T05:25:19.685Z,75.50
2022-11-11T05:27:46.687Z,75.60
2022-11-11T05:30:16.589Z,75.60
2022-11-11T05:32:44.000Z,75.60
2022-11-11T05:35:12.690Z,75.60
2022-11-11T05:37:40.654Z,75.60
2022-11-11T05:40:09.400Z,75.70
2022-11-11T05:42:46.290Z,75.70
2022-11-11T05:45:16.797Z,75.70
2022-11-11T05:47:43.999Z,75.70
2022-11-11T05:50:11.175Z,75.80
2022-11-11T05:52:38.218Z,75.80
2022-11-11T05:55:06.210Z,75.80
2022-11-11T05:57:33.279Z,75.80
2022-11-11T06:00:00.680Z,75.70
2022-11-11T06:02:27.699Z,75.70
2022-11-11T06:04:55.603Z,75.70
2022-11-11T06:07:22.762Z,75.80
2022-11-11T06:09:49.842Z,75.80
2022-11-11T06:12:16.895Z,75.80
2022-11-11T06:14:44.071Z,75.90
2022-11-11T06:17:11.109Z,75.90
2022-11-11T06:19:38.282Z,75.90
2022-11-11T06:22:05.358Z,75.90
2022-11-11T06:24:32.489Z,75.90
2022-11-11T06:27:00.120Z,75.90
2022-11-11T06:29:27.297Z,75.90
2022-11-11T06:31:54.405Z,75.90
2022-11-11T06:34:21.423Z,75.90
2022-11-11T06:36:48.739Z,75.90
2022-11-11T06:39:15.970Z,75.90
2022-11-11T06:41:42.993Z,75.90
2022-11-11T06:44:10.194Z,75.90
2022-11-11T06:46:37.352Z,75.90
2022-11-11T06:49:04.479Z,75.90
2022-11-11T06:51:31.607Z,75.90
2022-11-11T06:53:58.807Z,76.00
2022-11-11T06:56:25.905Z,76.00
2022-11-11T06:58:53.123Z,76.10
2022-11-11T07:01:20.261Z,76.10
2022-11-11T07:03:47.539Z,76.10
2022-11-11T07:06:14.654Z,76.10
2022-11-11T07:08:44.673Z,76.20
2022-11-11T07:11:17.475Z,76.20
2022-11-11T07:13:46.419Z,76.20
2022-11-11T07:16:13.492Z,76.10
2022-11-11T07:18:40.697Z,76.10
2022-11-11T07:21:07.841Z,76.00
2022-11-11T07:23:34.868Z,76.00
2022-11-11T07:26:02.156Z,76.00
2022-11-11T07:28:29.298Z,76.00
2022-11-11T07:30:56.554Z,76.00
2022-11-11T07:33:24.895Z,76.00
2022-11-11T07:35:52.139Z,76.00
2022-11-11T07:38:19.501Z,75.90
2022-11-11T07:40:46.657Z,75.90
2022-11-11T07:43:13.738Z,75.90
2022-11-11T07:45:40.983Z,76.00
2022-11-11T07:48:08.174Z,76.00
2022-11-11T07:50:35.324Z,76.00
2022-11-11T07:53:02.463Z,76.10
2022-11-11T07:55:29.648Z,76.10
2022-11-11T07:57:58.790Z,76.10
2022-11-11T08:00:26.410Z,76.00
2022-11-11T08:02:58.408Z,76.00
2022-11-11T08:05:26.313Z,76.10
2022-11-11T08:07:53.504Z,76.10
2022-11-11T08:10:20.686Z,76.10
2022-11-11T08:13:13.207Z,76.10
2022-11-11T08:15:40.406Z,76.20
2022-11-11T08:18:07.868Z,76.10
2022-11-11T08:20:36.703Z,76.10
2022-11-11T08:23:49.794Z,76.10
2022-11-11T08:26:06.308Z,76.10
2022-11-11T08:28:35.258Z,76.00
2022-11-11T08:31:04.363Z,76.00
2022-11-11T08:33:33.859Z,76.00
2022-11-11T08:36:13.872Z,76.00
2022-11-11T08:38:44.753Z,75.90
2022-11-11T08:41:11.965Z,76.00
2022-11-11T08:43:38.977Z,76.10
2022-11-11T08:46:06.801Z,76.20
2022-11-11T08:48:34.270Z,76.40
2022-11-11T08:51:01.532Z,76.60
2022-11-11T08:53:29.497Z,76.80
2022-11-11T08:55:56.732Z,76.80
2022-11-11T08:58:23.935Z,76.90
2022-11-11T09:00:51.150Z,76.90
2022-11-11T09:03:18.359Z,76.90
2022-11-11T09:05:47.552Z,76.80
2022-11-11T09:08:14.983Z,76.80
2022-11-11T09:10:42.880Z,76.90
2022-11-11T09:13:10.193Z,76.80
2022-11-11T09:15:37.539Z,76.70
2022-11-11T09:18:04.824Z,76.80
2022-11-11T09:20:31.868Z,76.90
2022-11-11T09:22:59.083Z,76.80
2022-11-11T09:25:26.086Z,76.60
2022-11-11T09:28:01.476Z,76.30
2022-11-11T09:30:29.865Z,76.20
2022-11-11T09:33:05.299Z,76.20
2022-11-11T09:35:32.567Z,76.30
2022-11-11T09:38:01.540Z,76.20
2022-11-11T09:40:47.039Z,76.20
2022-11-11T09:43:40.459Z,76.20
2022-11-11T09:46:19.093Z,76.20
2022-11-11T09:49:07.858Z,76.00
2022-11-11T09:52:02.252Z,75.90
2022-11-11T09:55:15.796Z,75.90
2022-11-11T09:57:59.696Z,75.90
2022-11-11T10:00:31.518Z,75.90
2022-11-11T10:03:22.248Z,76.10
2022-11-11T10:06:05.401Z,76.50
2022-11-11T10:08:56.317Z,76.30
2022-11-11T10:11:51.473Z,76.40
2022-11-11T10:14:19.006Z,76.30
2022-11-11T10:17:15.604Z,76.30
2022-11-11T10:20:33.193Z,76.40
2022-11-11T10:23:32.089Z,76.50
2022-11-11T10:26:14.554Z,76.40
2022-11-11T10:28:45.551Z,76.20
2022-11-11T10:31:20.862Z,76.30
2022-11-11T10:34:13.875Z,76.30
2022-11-11T10:36:50.317Z,76.30
2022-11-11T10:39:27.963Z,76.20
2022-11-11T10:41:55.145Z,76.20
2022-11-11T10:44:31.892Z,76.20
2022-11-11T10:47:20.383Z,76.30
2022-11-11T10:50:03.313Z,76.40
2022-11-11T10:52:54.907Z,76.70
2022-11-11T10:55:31.082Z,76.80
2022-11-11T10:58:10.887Z,76.80
2022-11-11T11:00:44.052Z,76.80
2022-11-11T11:03:29.413Z,76.80
2022-11-11T11:06:08.869Z,77.00
2022-11-11T11:08:53.364Z,76.80
2022-11-11T11:11:31.679Z,76.60
2022-11-11T11:14:03.544Z,76.30
2022-11-11T11:16:34.891Z,76.00
2022-11-11T11:19:20.563Z,75.80
2022-11-11T11:21:55.517Z,75.80
2022-11-11T11:24:28.409Z,75.90
2022-11-11T11:26:59.169Z,76.00
2022-11-11T11:29:28.576Z,76.00
2022-11-11T11:31:56.536Z,76.10
2022-11-11T11:34:55.912Z,76.20
2022-11-11T11:37:26.018Z,76.20
2022-11-11T11:40:07.471Z,76.20
2022-11-11T11:42:39.732Z,75.80
2022-11-11T11:45:17.278Z,75.60
2022-11-11T11:48:30.538Z,75.20
2022-11-11T11:51:09.875Z,74.90
2022-11-11T11:53:59.900Z,75.00
2022-11-11T11:56:42.621Z,74.80
2022-11-11T11:59:32.612Z,74.90
2022-11-11T12:02:51.897Z,75.00
2022-11-11T12:05:36.065Z,75.10
2022-11-11T12:08:38.604Z,75.20
2022-11-11T12:11:44.381Z,75.10
2022-11-11T12:14:44.877Z,75.20
2022-11-11T12:17:48.926Z,75.20
2022-11-11T12:20:26.885Z,75.10
2022-11-11T12:23:18.314Z,75.10
2022-11-11T12:26:26.388Z,75.00
2022-11-11T12:29:11.017Z,75.00
2022-11-11T12:32:08.392Z,74.90
2022-11-11T12:35:17.915Z,74.70
2022-11-11T12:38:12.036Z,74.50
2022-11-11T12:40:56.400Z,74.70
2022-11-11T12:43:47.701Z,74.80
2022-11-11T12:46:57.801Z,75.00
2022-11-11T12:50:07.448Z,74.70
2022-11-11T12:53:17.952Z,74.50
2022-11-11T12:56:16.577Z,74.60
2022-11-11T12:59:11.969Z,74.80
2022-11-11T13:01:56.574Z,74.90
2022-11-11T13:05:08.634Z,74.90
2022-11-11T13:08:04.668Z,75.10
2022-11-11T13:10:50.264Z,75.10
2022-11-11T13:13:26.667Z,75.30
2022-11-11T13:15:54.910Z,75.30
2022-11-11T13:18:45.166Z,74.90
2022-11-11T13:21:26.784Z,74.40
2022-11-11T13:23:54.026Z,74.10
2022-11-11T13:26:54.285Z,73.90
2022-11-11T13:29:52.098Z,73.70
2022-11-11T13:32:24.881Z,73.50
2022-11-11T13:34:53.265Z,73.40
2022-11-11T13:37:33.373Z,73.50
2022-11-11T13:40:40.863Z,73.80
2022-11-11T13:43:41.316Z,73.80
2022-11-11T13:46:28.897Z,73.80
2022-11-11T13:48:56.837Z,73.60
2022-11-11T13:51:43.589Z,73.80
2022-11-11T13:54:30.823Z,73.60
2022-11-11T13:57:24.706Z,73.30
2022-11-11T14:00:01.276Z,73.20
2022-11-11T14:02:32.419Z,73.40
2022-11-11T14:05:02.494Z,73.40
2022-11-11T14:07:44.959Z,73.30
2022-11-11T14:10:18.088Z,73.10
2022-11-11T14:13:24.590Z,73.10
2022-11-11T14:15:54.422Z,73.00
2022-11-11T14:18:24.350Z,73.10
2022-11-11T14:20:53.534Z,73.20
2022-11-11T14:23:39.107Z,73.20
2022-11-11T14:26:10.065Z,73.10
2022-11-11T14:28:59.697Z,73.10
2022-11-11T14:31:48.532Z,73.10
2022-11-11T14:34:37.233Z,73.10
2022-11-11T14:37:46.467Z,73.00
2022-11-11T14:40:30.121Z,73.00
2022-11-11T14:42:59.014Z,73.00
2022-11-11T14:45:31.935Z,73.00
2022-11-11T14:47:59.308Z,73.10
2022-11-11T14:50:32.749Z,73.10
2022-11-11T14:53:08.710Z,73.10
2022-11-11T14:55:38.372Z,73.20
2022-11-11T14:58:08.467Z,73.30
2022-11-11T15:01:03.994Z,73.40
2022-11-11T15:03:41.708Z,73.50
2022-11-11T15:06:23.844Z,73.40
2022-11-11T15:09:15.635Z,73.40
2022-11-11T15:12:17.629Z,73.40
2022-11-11T15:15:19.330Z,73.50
2022-11-11T15:17:52.461Z,73.40
2022-11-11T15:21:04.483Z,73.40
2022-11-11T15:23:42.454Z,73.60
2022-11-11T15:26:25.614Z,73.50
2022-11-11T15:29:30.191Z,73.60
2022-11-11T15:32:39.726Z,73.80
2022-11-11T15:35:43.166Z,73.80
2022-11-11T15:38:13.890Z,73.90
2022-11-11T15:40:50.844Z,73.80
2022-11-11T15:43:29.443Z,73.80
2022-11-11T15:46:03.745Z,73.90
2022-11-11T15:48:38.609Z,73.90
2022-11-11T15:51:36.331Z,74.00
2022-11-11T15:54:23.006Z,74.20
2022-11-11T15:56:50.236Z,74.00
2022-11-11T15:59:36.434Z,73.90
2022-11-11T16:02:32.308Z,74.10
2022-11-11T16:05:08.493Z,74.10
2022-11-11T16:07:42.995Z,74.10
2022-11-11T16:10:29.307Z,74.20
2022-11-11T16:13:16.450Z,74.20
2022-11-11T16:15:53.077Z,74.40
2022-11-11T16:18:51.193Z,74.40
2022-11-11T16:21:33.043Z,74.40
2022-11-11T16:24:01.356Z,74.40
2022-11-11T16:26:33.229Z,74.30
2022-11-11T16:29:00.337Z,74.50
2022-11-11T16:31:45.073Z,74.60
2022-11-11T16:34:31.003Z,74.30
2022-11-11T16:37:15.763Z,74.50
2022-11-11T16:39:45.438Z,74.50
2022-11-11T16:42:29.564Z,74.40
2022-11-11T16:45:07.017Z,74.70
2022-11-11T16:47:34.164Z,74.60
2022-11-11T16:50:22.771Z,74.60
2022-11-11T16:52:57.861Z,74.80
2022-11-11T16:55:55.464Z,74.70
2022-11-11T16:58:23.372Z,74.80
2022-11-11T17:00:59.356Z,74.60
2022-11-11T17:03:27.592Z,74.70
2022-11-11T17:06:08.049Z,74.70
2022-11-11T17:08:44.310Z,74.70
2022-11-11T17:11:41.569Z,74.70
2022-11-11T17:14:08.943Z,74.60
2022-11-11T17:16:36.929Z,74.60
2022-11-11T17:19:04.664Z,74.70
2022-11-11T17:21:31.744Z,74.70
2022-11-11T17:23:58.950Z,74.70
2022-11-11T17:26:26.111Z,74.60
2022-11-11T17:28:53.256Z,74.70
2022-11-11T17:31:20.346Z,74.70
2022-11-11T17:33:47.515Z,74.80
2022-11-11T17:36:14.575Z,74.80
2022-11-11T17:38:41.558Z,74.80
2022-11-11T17:41:09.765Z,74.80
2022-11-11T17:43:36.859Z,74.70
2022-11-11T17:46:04.833Z,74.70
2022-11-11T17:48:32.497Z,74.70
2022-11-11T17:51:05.628Z,74.70
2022-11-11T17:53:37.196Z,74.80
2022-11-11T17:56:06.423Z,74.80
2022-11-11T17:58:40.940Z,74.70
2022-11-11T18:01:14.937Z,74.70
2022-11-11T18:03:42.895Z,74.70
2022-11-11T18:06:10.967Z,74.90
2022-11-11T18:08:38.634Z,74.90
2022-11-11T18:11:09.013Z,74.90
2022-11-11T18:13:36.494Z,74.90
2022-11-11T18:16:06.421Z,74.90
2022-11-11T18:18:33.907Z,74.90
2022-11-11T18:21:05.911Z,74.90
2022-11-11T18:23:36.591Z,75.00
2022-11-11T18:26:04.886Z,74.90
2022-11-11T18:28:35.400Z,74.90
2022-11-11T18:31:09.916Z,75.00
2022-11-11T18:33:38.554Z,75.00
2022-11-11T18:36:15.227Z,75.00
2022-11-11T18:38:43.608Z,75.00
2022-11-11T18:41:17.741Z,75.00
2022-11-11T18:43:48.811Z,75.00
2022-11-11T18:46:25.617Z,75.00
2022-11-11T18:48:58.955Z,75.00
2022-11-11T18:51:28.561Z,74.90
2022-11-11T18:53:55.639Z,74.90
2022-11-11T18:56:26.065Z,74.90
2022-11-11T18:58:56.853Z,75.00
2022-11-11T19:01:28.326Z,75.00
2022-11-11T19:04:05.090Z,75.00
2022-11-11T19:06:36.201Z,75.10
2022-11-11T19:09:07.237Z,75.00
2022-11-11T19:11:42.113Z,75.10
2022-11-11T19:14:10.866Z,75.10
2022-11-11T19:16:39.009Z,75.10
2022-11-11T19:19:06.916Z,75.20
2022-11-11T19:21:37.742Z,75.20
2022-11-11T19:24:08.084Z,75.30
2022-11-11T19:26:35.333Z,75.30
2022-11-11T19:29:05.974Z,75.50
2022-11-11T19:31:33.480Z,75.50
2022-11-11T19:34:01.209Z,75.50
2022-11-11T19:36:30.061Z,75.60
2022-11-11T19:39:01.980Z,75.60
2022-11-11T19:41:31.855Z,75.70
2022-11-11T19:43:59.822Z,75.70
2022-11-11T19:46:30.394Z,75.70
2022-11-11T19:48:59.266Z,75.80
2022-11-11T19:51:32.976Z,75.80
2022-11-11T19:54:00.406Z,75.80
2022-11-11T19:56:31.208Z,75.80
2022-11-11T19:58:58.724Z,75.80
2022-11-11T20:01:27.445Z,75.70
2022-11-11T20:03:55.603Z,75.70
2022-11-11T20:06:33.718Z,75.70
2022-11-11T20:09:07.769Z,75.60
2022-11-11T20:11:36.818Z,75.60
2022-11-11T20:14:05.467Z,75.60
2022-11-11T20:16:33.376Z,75.60
2022-11-11T20:19:01.683Z,75.60
2022-11-11T20:21:29.197Z,75.60
2022-11-11T20:23:56.734Z,75.70
2022-11-11T20:26:24.659Z,75.70
2022-11-11T20:28:57.528Z,75.70
2022-11-11T20:31:25.632Z,75.70
2022-11-11T20:33:52.937Z,75.70
2022-11-11T20:36:20.136Z,75.80
2022-11-11T20:38:47.558Z,75.80
2022-11-11T20:41:20.040Z,75.80
2022-11-11T20:43:47.712Z,75.90
2022-11-11T20:46:20.204Z,75.90
2022-11-11T20:48:50.198Z,75.90
2022-11-11T20:51:20.998Z,75.90
2022-11-11T20:53:53.221Z,76.00
2022-11-11T20:56:24.159Z,76.00
2022-11-11T20:58:53.544Z,76.00
2022-11-11T21:01:27.427Z,76.00
2022-11-11T21:04:00.417Z,76.00
2022-11-11T21:06:30.335Z,76.00
2022-11-11T21:08:58.546Z,76.00
2022-11-11T21:11:26.075Z,76.10
2022-11-11T21:13:56.279Z,76.00
2022-11-11T21:16:27.170Z,76.00
2022-11-11T21:18:56.814Z,76.00
2022-11-11T21:21:28.346Z,76.10
2022-11-11T21:24:04.295Z,76.10
2022-11-11T21:26:33.060Z,76.20
2022-11-11T21:29:00.578Z,76.20
2022-11-11T21:31:34.476Z,76.20
2022-11-11T21:34:07.788Z,76.30
2022-11-11T21:36:38.201Z,76.30
2022-11-11T21:39:06.899Z,76.30
2022-11-11T21:41:37.473Z,76.30
2022-11-11T21:44:07.319Z,76.20
2022-11-11T21:46:36.700Z,76.20
2022-11-11T21:49:05.433Z,76.20
2022-11-11T21:51:34.707Z,76.20
2022-11-11T21:54:10.510Z,76.20
2022-11-11T21:56:39.153Z,76.30
2022-11-11T21:59:08.227Z,76.20
2022-11-11T22:01:41.552Z,76.20
2022-11-11T22:04:12.434Z,76.20
2022-11-11T22:06:40.557Z,76.10
2022-11-11T22:09:08.678Z,76.10
2022-11-11T22:11:37.189Z,76.10
2022-11-11T22:14:05.899Z,76.10
2022-11-11T22:16:36.754Z,76.10
2022-11-11T22:19:08.073Z,76.10
2022-11-11T22:21:37.226Z,76.10
2022-11-11T22:24:08.288Z,76.10
2022-11-11T22:26:42.373Z,76.00
2022-11-11T22:29:12.070Z,76.00
2022-11-11T22:31:42.179Z,75.90
2022-11-11T22:34:13.034Z,75.90
2022-11-11T22:36:40.778Z,75.80
2022-11-11T22:39:09.264Z,75.90
2022-11-11T22:41:39.676Z,75.80
2022-11-11T22:44:07.122Z,75.80
2022-11-11T22:46:35.694Z,75.90
2022-11-11T22:49:07.455Z,75.90
2022-11-11T22:51:34.654Z,75.90
2022-11-11T22:54:05.936Z,76.20
2022-11-11T22:56:36.165Z,75.80
2022-11-11T22:59:04.235Z,75.80
2022-11-11T23:01:33.361Z,75.90
2022-11-11T23:04:03.100Z,75.90
2022-11-11T23:06:36.215Z,76.00
2022-11-11T23:09:06.745Z,76.00
2022-11-11T23:11:36.472Z,76.00
2022-11-11T23:14:08.098Z,76.00
2022-11-11T23:16:35.394Z,76.00
2022-11-11T23:19:04.350Z,76.00
2022-11-11T23:21:31.826Z,76.00
2022-11-11T23:23:59.547Z,76.00
2022-11-11T23:26:30.855Z,76.00
2022-11-11T23:28:58.963Z,76.10
2022-11-11T23:31:32.174Z,76.10
2022-11-11T23:34:02.136Z,76.20
2022-11-11T23:36:34.024Z,76.20
2022-11-11T23:39:01.317Z,76.20
2022-11-11T23:41:28.930Z,76.20
2022-11-11T23:43:56.720Z,76.10
2022-11-11T23:46:24.086Z,76.10
2022-11-11T23:48:51.565Z,76.20
2022-11-11T23:51:18.932Z,76.20
2022-11-11T23:53:46.067Z,76.30
2022-11-11T23:56:13.459Z,76.30
2022-11-11T23:58:40.579Z,76.30
